sensor_id;sensor_type;location;lat;lon;timestamp;temperature;humidity
52513;DHT22;38422;53.172;6.974;2023-04-28T00:01:11;7.70;99.90
52513;DHT22;38422;53.172;6.974;2023-04-28T00:03:37;7.70;99.90
52513;DHT22;38422;53.172;6.974;2023-04-28T00:06:02;7.70;99.90
52513;DHT22;38422;53.172;6.974;2023-04-28T00:08:28;7.70;99.90
52513;DHT22;38422;53.172;6.974;2023-04-28T00:10:55;7.70;99.90
52513;DHT22;38422;53.172;6.974;2023-04-28T00:13:21;7.70;99.90
52513;DHT22;38422;53.172;6.974;2023-04-28T00:15:48;7.70;99.90
52513;DHT22;38422;53.172;6.974;2023-04-28T00:18:14;7.70;99.90
52513;DHT22;38422;53.172;6.974;2023-04-28T00:20:40;7.70;99.90
52513;DHT22;38422;53.172;6.974;2023-04-28T00:23:06;7.70;99.90
52513;DHT22;38422;53.172;6.974;2023-04-28T00:25:31;7.70;99.90
52513;DHT22;38422;53.172;6.974;2023-04-28T00:27:57;7.70;99.90
52513;DHT22;38422;53.172;6.974;2023-04-28T00:30:23;7.60;99.90
52513;DHT22;38422;53.172;6.974;2023-04-28T00:32:49;7.60;99.90
52513;DHT22;38422;53.172;6.974;2023-04-28T00:35:16;7.60;99.90
52513;DHT22;38422;53.172;6.974;2023-04-28T00:37:41;7.50;99.90
52513;DHT22;38422;53.172;6.974;2023-04-28T00:40:07;7.50;99.90
52513;DHT22;38422;53.172;6.974;2023-04-28T00:42:33;7.40;99.90
52513;DHT22;38422;53.172;6.974;2023-04-28T00:44:59;7.40;99.90
52513;DHT22;38422;53.172;6.974;2023-04-28T00:47:31;7.30;99.90
52513;DHT22;38422;53.172;6.974;2023-04-28T00:49:58;7.40;99.90
52513;DHT22;38422;53.172;6.974;2023-04-28T00:52:24;7.40;99.90
52513;DHT22;38422;53.172;6.974;2023-04-28T00:54:49;7.30;99.90
52513;DHT22;38422;53.172;6.974;2023-04-28T00:57:15;7.30;99.90
52513;DHT22;38422;53.172;6.974;2023-04-28T00:59:41;7.20;99.90
52513;DHT22;38422;53.172;6.974;2023-04-28T01:02:07;7.20;99.90
52513;DHT22;38422;53.172;6.974;2023-04-28T01:04:33;7.10;99.90
52513;DHT22;38422;53.172;6.974;2023-04-28T01:06:59;7.20;99.90
52513;DHT22;38422;53.172;6.974;2023-04-28T01:09:26;7.20;99.90
52513;DHT22;38422;53.172;6.974;2023-04-28T01:11:51;7.30;99.90
52513;DHT22;38422;53.172;6.974;2023-04-28T01:14:17;7.30;99.90
52513;DHT22;38422;53.172;6.974;2023-04-28T01:16:43;7.30;99.90
52513;DHT22;38422;53.172;6.974;2023-04-28T01:19:18;7.30;99.90
52513;DHT22;38422;53.172;6.974;2023-04-28T01:21:46;7.30;99.90
52513;DHT22;38422;53.172;6.974;2023-04-28T01:24:11;7.30;99.90
52513;DHT22;38422;53.172;6.974;2023-04-28T01:26:37;7.30;99.90
52513;DHT22;38422;53.172;6.974;2023-04-28T01:29:03;7.40;99.90
52513;DHT22;38422;53.172;6.974;2023-04-28T01:31:28;7.50;99.90
52513;DHT22;38422;53.172;6.974;2023-04-28T01:33:55;7.50;99.90
52513;DHT22;38422;53.172;6.974;2023-04-28T01:36:21;7.50;99.90
52513;DHT22;38422;53.172;6.974;2023-04-28T01:38:49;7.50;99.90
52513;DHT22;38422;53.172;6.974;2023-04-28T01:41:14;7.40;99.90
52513;DHT22;38422;53.172;6.974;2023-04-28T01:43:40;7.40;99.90
52513;DHT22;38422;53.172;6.974;2023-04-28T01:46:08;7.40;99.90
52513;DHT22;38422;53.172;6.974;2023-04-28T01:48:34;7.40;99.90
52513;DHT22;38422;53.172;6.974;2023-04-28T01:51:00;7.30;99.90
52513;DHT22;38422;53.172;6.974;2023-04-28T01:53:26;7.30;99.90
52513;DHT22;38422;53.172;6.974;2023-04-28T01:55:52;7.30;99.90
52513;DHT22;38422;53.172;6.974;2023-04-28T01:58:18;7.30;99.90
52513;DHT22;38422;53.172;6.974;2023-04-28T02:00:44;7.30;99.90
52513;DHT22;38422;53.172;6.974;2023-04-28T02:03:10;7.30;99.90
52513;DHT22;38422;53.172;6.974;2023-04-28T02:05:36;7.30;99.90
52513;DHT22;38422;53.172;6.974;2023-04-28T02:08:01;7.30;99.90
52513;DHT22;38422;53.172;6.974;2023-04-28T02:10:27;7.30;99.90
52513;DHT22;38422;53.172;6.974;2023-04-28T02:12:53;7.30;99.90
52513;DHT22;38422;53.172;6.974;2023-04-28T02:15:19;7.30;99.90
52513;DHT22;38422;53.172;6.974;2023-04-28T02:17:45;7.30;99.90
52513;DHT22;38422;53.172;6.974;2023-04-28T02:20:11;7.20;99.90
52513;DHT22;38422;53.172;6.974;2023-04-28T02:22:38;7.20;99.90
52513;DHT22;38422;53.172;6.974;2023-04-28T02:25:04;7.30;99.90
52513;DHT22;38422;53.172;6.974;2023-04-28T02:27:30;7.20;99.90
52513;DHT22;38422;53.172;6.974;2023-04-28T02:29:56;7.20;99.90
52513;DHT22;38422;53.172;6.974;2023-04-28T02:32:21;7.20;99.90
52513;DHT22;38422;53.172;6.974;2023-04-28T02:34:52;7.20;99.90
52513;DHT22;38422;53.172;6.974;2023-04-28T02:37:18;7.20;99.90
52513;DHT22;38422;53.172;6.974;2023-04-28T02:39:44;7.20;99.90
52513;DHT22;38422;53.172;6.974;2023-04-28T02:42:10;7.20;99.90
52513;DHT22;38422;53.172;6.974;2023-04-28T02:44:36;7.20;99.90
52513;DHT22;38422;53.172;6.974;2023-04-28T02:47:01;7.20;99.90
52513;DHT22;38422;53.172;6.974;2023-04-28T02:49:27;7.10;99.90
52513;DHT22;38422;53.172;6.974;2023-04-28T02:51:53;7.10;99.90
52513;DHT22;38422;53.172;6.974;2023-04-28T02:54:18;7.10;99.90
52513;DHT22;38422;53.172;6.974;2023-04-28T02:56:52;7.10;99.90
52513;DHT22;38422;53.172;6.974;2023-04-28T02:59:19;7.00;99.90
52513;DHT22;38422;53.172;6.974;2023-04-28T03:01:45;7.00;99.90
52513;DHT22;38422;53.172;6.974;2023-04-28T03:04:11;7.00;99.90
52513;DHT22;38422;53.172;6.974;2023-04-28T03:06:37;7.00;99.90
52513;DHT22;38422;53.172;6.974;2023-04-28T03:09:02;7.00;99.90
52513;DHT22;38422;53.172;6.974;2023-04-28T03:11:28;7.00;99.90
52513;DHT22;38422;53.172;6.974;2023-04-28T03:13:54;7.00;99.90
52513;DHT22;38422;53.172;6.974;2023-04-28T03:16:20;7.00;99.90
52513;DHT22;38422;53.172;6.974;2023-04-28T03:18:45;7.00;99.90
52513;DHT22;38422;53.172;6.974;2023-04-28T03:21:11;7.00;99.90
52513;DHT22;38422;53.172;6.974;2023-04-28T03:23:37;7.00;99.90
52513;DHT22;38422;53.172;6.974;2023-04-28T03:26:02;6.90;99.90
52513;DHT22;38422;53.172;6.974;2023-04-28T03:28:28;6.90;99.90
52513;DHT22;38422;53.172;6.974;2023-04-28T03:30:54;6.90;99.90
52513;DHT22;38422;53.172;6.974;2023-04-28T03:33:20;6.90;99.90
52513;DHT22;38422;53.172;6.974;2023-04-28T03:35:46;6.90;99.90
52513;DHT22;38422;53.172;6.974;2023-04-28T03:38:12;7.00;99.90
52513;DHT22;38422;53.172;6.974;2023-04-28T03:40:38;7.00;99.90
52513;DHT22;38422;53.172;6.974;2023-04-28T03:43:03;7.00;99.90
52513;DHT22;38422;53.172;6.974;2023-04-28T03:45:29;6.90;99.90
52513;DHT22;38422;53.172;6.974;2023-04-28T03:47:55;6.90;99.90
52513;DHT22;38422;53.172;6.974;2023-04-28T03:50:21;7.00;99.90
52513;DHT22;38422;53.172;6.974;2023-04-28T03:52:46;7.00;99.90
52513;DHT22;38422;53.172;6.974;2023-04-28T03:55:12;6.90;99.90
52513;DHT22;38422;53.172;6.974;2023-04-28T03:57:38;7.00;99.90
52513;DHT22;38422;53.172;6.974;2023-04-28T04:00:04;6.90;99.90
52513;DHT22;38422;53.172;6.974;2023-04-28T04:02:30;7.00;99.90
52513;DHT22;38422;53.172;6.974;2023-04-28T04:04:56;6.90;99.90
52513;DHT22;38422;53.172;6.974;2023-04-28T04:07:22;6.90;99.90
52513;DHT22;38422;53.172;6.974;2023-04-28T04:09:47;6.90;99.90
52513;DHT22;38422;53.172;6.974;2023-04-28T04:12:13;6.90;99.90
52513;DHT22;38422;53.172;6.974;2023-04-28T04:14:39;6.80;99.90
52513;DHT22;38422;53.172;6.974;2023-04-28T04:17:05;6.80;99.90
52513;DHT22;38422;53.172;6.974;2023-04-28T04:19:30;6.80;99.90
52513;DHT22;38422;53.172;6.974;2023-04-28T04:21:56;6.80;99.90
52513;DHT22;38422;53.172;6.974;2023-04-28T04:24:22;6.80;99.90
52513;DHT22;38422;53.172;6.974;2023-04-28T04:26:48;6.80;99.90
52513;DHT22;38422;53.172;6.974;2023-04-28T04:29:13;6.80;99.90
52513;DHT22;38422;53.172;6.974;2023-04-28T04:31:39;6.80;99.90
52513;DHT22;38422;53.172;6.974;2023-04-28T04:34:05;6.80;99.90
52513;DHT22;38422;53.172;6.974;2023-04-28T04:36:31;6.80;99.90
52513;DHT22;38422;53.172;6.974;2023-04-28T04:38:57;6.80;99.90
52513;DHT22;38422;53.172;6.974;2023-04-28T04:41:24;6.90;99.90
52513;DHT22;38422;53.172;6.974;2023-04-28T04:43:50;6.90;99.90
52513;DHT22;38422;53.172;6.974;2023-04-28T04:46:16;6.90;99.90
52513;DHT22;38422;53.172;6.974;2023-04-28T04:48:42;6.90;99.90
52513;DHT22;38422;53.172;6.974;2023-04-28T04:51:08;6.90;99.90
52513;DHT22;38422;53.172;6.974;2023-04-28T04:53:33;6.90;99.90
52513;DHT22;38422;53.172;6.974;2023-04-28T04:55:59;7.00;99.90
52513;DHT22;38422;53.172;6.974;2023-04-28T04:58:26;7.00;99.90
52513;DHT22;38422;53.172;6.974;2023-04-28T05:00:51;7.00;99.90
52513;DHT22;38422;53.172;6.974;2023-04-28T05:03:17;7.00;99.90
52513;DHT22;38422;53.172;6.974;2023-04-28T05:05:43;7.10;99.90
52513;DHT22;38422;53.172;6.974;2023-04-28T05:08:12;7.10;99.90
52513;DHT22;38422;53.172;6.974;2023-04-28T05:10:38;7.10;99.90
52513;DHT22;38422;53.172;6.974;2023-04-28T05:13:03;7.10;99.90
52513;DHT22;38422;53.172;6.974;2023-04-28T05:15:29;7.10;99.90
52513;DHT22;38422;53.172;6.974;2023-04-28T05:17:56;7.10;99.90
52513;DHT22;38422;53.172;6.974;2023-04-28T05:20:22;7.10;99.90
52513;DHT22;38422;53.172;6.974;2023-04-28T05:22:48;7.10;99.90
52513;DHT22;38422;53.172;6.974;2023-04-28T05:25:13;7.10;99.90
52513;DHT22;38422;53.172;6.974;2023-04-28T05:27:39;7.10;99.90
52513;DHT22;38422;53.172;6.974;2023-04-28T05:30:09;7.10;99.90
52513;DHT22;38422;53.172;6.974;2023-04-28T05:32:36;7.10;99.90
52513;DHT22;38422;53.172;6.974;2023-04-28T05:35:01;7.10;99.90
52513;DHT22;38422;53.172;6.974;2023-04-28T05:37:27;7.10;99.90
52513;DHT22;38422;53.172;6.974;2023-04-28T05:39:53;7.00;99.90
52513;DHT22;38422;53.172;6.974;2023-04-28T05:42:19;7.00;99.90
52513;DHT22;38422;53.172;6.974;2023-04-28T05:44:45;7.00;99.90
52513;DHT22;38422;53.172;6.974;2023-04-28T05:47:11;7.00;99.90
52513;DHT22;38422;53.172;6.974;2023-04-28T05:49:37;7.00;99.90
52513;DHT22;38422;53.172;6.974;2023-04-28T05:52:02;7.00;99.90
52513;DHT22;38422;53.172;6.974;2023-04-28T05:54:28;7.00;99.90
52513;DHT22;38422;53.172;6.974;2023-04-28T05:56:54;7.10;99.90
52513;DHT22;38422;53.172;6.974;2023-04-28T05:59:20;7.10;99.90
52513;DHT22;38422;53.172;6.974;2023-04-28T06:01:46;7.20;99.90
52513;DHT22;38422;53.172;6.974;2023-04-28T06:04:12;7.30;99.90
52513;DHT22;38422;53.172;6.974;2023-04-28T06:06:38;7.40;99.90
52513;DHT22;38422;53.172;6.974;2023-04-28T06:09:03;7.40;99.90
52513;DHT22;38422;53.172;6.974;2023-04-28T06:11:29;7.50;99.90
52513;DHT22;38422;53.172;6.974;2023-04-28T06:13:56;7.50;99.90
52513;DHT22;38422;53.172;6.974;2023-04-28T06:16:21;7.50;99.90
52513;DHT22;38422;53.172;6.974;2023-04-28T06:18:48;7.60;99.90
52513;DHT22;38422;53.172;6.974;2023-04-28T06:21:15;7.60;99.90
52513;DHT22;38422;53.172;6.974;2023-04-28T06:23:41;7.70;99.90
52513;DHT22;38422;53.172;6.974;2023-04-28T06:26:07;7.70;99.90
52513;DHT22;38422;53.172;6.974;2023-04-28T06:28:33;7.70;99.90
52513;DHT22;38422;53.172;6.974;2023-04-28T06:30:59;7.80;99.90
52513;DHT22;38422;53.172;6.974;2023-04-28T06:33:25;7.80;99.90
52513;DHT22;38422;53.172;6.974;2023-04-28T06:35:51;7.90;99.90
52513;DHT22;38422;53.172;6.974;2023-04-28T06:38:17;7.90;99.90
52513;DHT22;38422;53.172;6.974;2023-04-28T06:40:43;7.90;99.90
52513;DHT22;38422;53.172;6.974;2023-04-28T06:43:10;8.00;99.90
52513;DHT22;38422;53.172;6.974;2023-04-28T06:45:37;8.10;99.90
52513;DHT22;38422;53.172;6.974;2023-04-28T06:48:04;8.10;99.90
52513;DHT22;38422;53.172;6.974;2023-04-28T06:50:30;8.10;99.90
52513;DHT22;38422;53.172;6.974;2023-04-28T06:52:56;8.10;99.90
52513;DHT22;38422;53.172;6.974;2023-04-28T06:55:23;8.10;99.90
52513;DHT22;38422;53.172;6.974;2023-04-28T06:57:49;8.10;99.90
52513;DHT22;38422;53.172;6.974;2023-04-28T07:00:15;8.20;99.90
52513;DHT22;38422;53.172;6.974;2023-04-28T07:02:41;8.30;99.90
52513;DHT22;38422;53.172;6.974;2023-04-28T07:05:07;8.30;99.90
52513;DHT22;38422;53.172;6.974;2023-04-28T07:07:33;8.40;99.90
52513;DHT22;38422;53.172;6.974;2023-04-28T07:09:59;8.50;99.90
52513;DHT22;38422;53.172;6.974;2023-04-28T07:12:26;8.50;99.90
52513;DHT22;38422;53.172;6.974;2023-04-28T07:14:52;8.50;99.90
52513;DHT22;38422;53.172;6.974;2023-04-28T07:17:18;8.50;99.90
52513;DHT22;38422;53.172;6.974;2023-04-28T07:19:43;8.50;99.90
52513;DHT22;38422;53.172;6.974;2023-04-28T07:22:09;8.60;99.90
52513;DHT22;38422;53.172;6.974;2023-04-28T07:24:35;8.70;99.90
52513;DHT22;38422;53.172;6.974;2023-04-28T07:27:01;8.80;99.90
52513;DHT22;38422;53.172;6.974;2023-04-28T07:29:28;8.80;99.90
52513;DHT22;38422;53.172;6.974;2023-04-28T07:31:59;8.80;99.90
52513;DHT22;38422;53.172;6.974;2023-04-28T07:34:25;8.70;99.90
52513;DHT22;38422;53.172;6.974;2023-04-28T07:36:52;8.70;99.90
52513;DHT22;38422;53.172;6.974;2023-04-28T07:39:17;8.60;99.90
52513;DHT22;38422;53.172;6.974;2023-04-28T07:41:43;8.70;99.90
52513;DHT22;38422;53.172;6.974;2023-04-28T07:44:09;8.70;99.90
52513;DHT22;38422;53.172;6.974;2023-04-28T07:46:35;8.80;99.90
52513;DHT22;38422;53.172;6.974;2023-04-28T07:49:01;8.90;99.90
52513;DHT22;38422;53.172;6.974;2023-04-28T07:51:27;8.90;99.90
52513;DHT22;38422;53.172;6.974;2023-04-28T07:53:53;9.00;99.90
52513;DHT22;38422;53.172;6.974;2023-04-28T07:56:19;9.10;99.90
52513;DHT22;38422;53.172;6.974;2023-04-28T07:58:46;9.20;99.90
52513;DHT22;38422;53.172;6.974;2023-04-28T08:01:12;9.30;99.90
52513;DHT22;38422;53.172;6.974;2023-04-28T08:03:38;9.30;99.90
52513;DHT22;38422;53.172;6.974;2023-04-28T08:06:03;9.30;99.90
52513;DHT22;38422;53.172;6.974;2023-04-28T08:08:30;9.30;99.90
52513;DHT22;38422;53.172;6.974;2023-04-28T08:10:55;9.20;99.90
52513;DHT22;38422;53.172;6.974;2023-04-28T08:13:22;9.20;99.90
52513;DHT22;38422;53.172;6.974;2023-04-28T08:15:48;9.20;99.90
52513;DHT22;38422;53.172;6.974;2023-04-28T08:18:14;9.20;99.90
52513;DHT22;38422;53.172;6.974;2023-04-28T08:20:40;9.20;99.90
52513;DHT22;38422;53.172;6.974;2023-04-28T08:23:07;9.20;99.90
52513;DHT22;38422;53.172;6.974;2023-04-28T08:25:33;9.30;99.90
52513;DHT22;38422;53.172;6.974;2023-04-28T08:27:59;9.40;99.90
52513;DHT22;38422;53.172;6.974;2023-04-28T08:30:24;9.50;99.90
52513;DHT22;38422;53.172;6.974;2023-04-28T08:32:50;9.60;99.90
52513;DHT22;38422;53.172;6.974;2023-04-28T08:35:17;9.70;99.90
52513;DHT22;38422;53.172;6.974;2023-04-28T08:37:43;9.80;99.90
52513;DHT22;38422;53.172;6.974;2023-04-28T08:40:10;9.80;99.90
52513;DHT22;38422;53.172;6.974;2023-04-28T08:42:36;9.90;99.90
52513;DHT22;38422;53.172;6.974;2023-04-28T08:45:03;9.90;99.90
52513;DHT22;38422;53.172;6.974;2023-04-28T08:47:37;10.00;99.90
52513;DHT22;38422;53.172;6.974;2023-04-28T08:50:06;10.00;99.90
52513;DHT22;38422;53.172;6.974;2023-04-28T08:52:33;10.00;99.90
52513;DHT22;38422;53.172;6.974;2023-04-28T08:55:04;10.10;99.90
52513;DHT22;38422;53.172;6.974;2023-04-28T08:57:43;10.20;99.90
52513;DHT22;38422;53.172;6.974;2023-04-28T09:00:09;10.20;99.90
52513;DHT22;38422;53.172;6.974;2023-04-28T09:02:36;10.20;99.90
52513;DHT22;38422;53.172;6.974;2023-04-28T09:05:09;10.20;99.90
52513;DHT22;38422;53.172;6.974;2023-04-28T09:07:35;10.20;99.90
52513;DHT22;38422;53.172;6.974;2023-04-28T09:10:23;10.20;99.90
52513;DHT22;38422;53.172;6.974;2023-04-28T09:12:53;10.20;99.90
52513;DHT22;38422;53.172;6.974;2023-04-28T09:15:31;10.20;99.90
52513;DHT22;38422;53.172;6.974;2023-04-28T09:17:58;10.20;99.90
52513;DHT22;38422;53.172;6.974;2023-04-28T09:20:26;10.30;99.90
52513;DHT22;38422;53.172;6.974;2023-04-28T09:22:53;10.30;99.90
52513;DHT22;38422;53.172;6.974;2023-04-28T09:25:20;10.30;99.90
52513;DHT22;38422;53.172;6.974;2023-04-28T09:27:50;10.40;99.90
52513;DHT22;38422;53.172;6.974;2023-04-28T09:30:16;10.50;99.90
52513;DHT22;38422;53.172;6.974;2023-04-28T09:32:42;10.60;99.90
52513;DHT22;38422;53.172;6.974;2023-04-28T09:35:08;10.60;99.90
52513;DHT22;38422;53.172;6.974;2023-04-28T09:37:34;10.70;99.90
52513;DHT22;38422;53.172;6.974;2023-04-28T09:40:08;10.60;99.90
52513;DHT22;38422;53.172;6.974;2023-04-28T09:42:36;10.60;99.90
52513;DHT22;38422;53.172;6.974;2023-04-28T09:45:03;10.60;99.90
52513;DHT22;38422;53.172;6.974;2023-04-28T09:47:30;10.70;99.90
52513;DHT22;38422;53.172;6.974;2023-04-28T09:50:02;10.80;99.90
52513;DHT22;38422;53.172;6.974;2023-04-28T09:52:28;10.90;99.90
52513;DHT22;38422;53.172;6.974;2023-04-28T09:54:55;11.10;99.90
52513;DHT22;38422;53.172;6.974;2023-04-28T09:57:22;11.20;99.90
52513;DHT22;38422;53.172;6.974;2023-04-28T09:59:50;11.40;99.90
52513;DHT22;38422;53.172;6.974;2023-04-28T10:02:19;11.60;99.90
52513;DHT22;38422;53.172;6.974;2023-04-28T10:04:47;11.90;99.90
52513;DHT22;38422;53.172;6.974;2023-04-28T10:07:15;12.10;99.90
52513;DHT22;38422;53.172;6.974;2023-04-28T10:09:41;12.40;99.90
52513;DHT22;38422;53.172;6.974;2023-04-28T10:12:18;12.70;99.90
52513;DHT22;38422;53.172;6.974;2023-04-28T10:14:45;13.10;99.90
52513;DHT22;38422;53.172;6.974;2023-04-28T10:17:18;13.40;99.90
52513;DHT22;38422;53.172;6.974;2023-04-28T10:19:45;13.70;99.90
52513;DHT22;38422;53.172;6.974;2023-04-28T10:27:45;14.40;99.90
52513;DHT22;38422;53.172;6.974;2023-04-28T10:30:16;14.70;99.90
52513;DHT22;38422;53.172;6.974;2023-04-28T10:32:42;14.90;99.90
52513;DHT22;38422;53.172;6.974;2023-04-28T10:38:03;14.70;99.90
52513;DHT22;38422;53.172;6.974;2023-04-28T10:40:36;14.80;99.90
52513;DHT22;38422;53.172;6.974;2023-04-28T10:43:03;14.70;99.90
52513;DHT22;38422;53.172;6.974;2023-04-28T10:48:20;14.80;99.90
52513;DHT22;38422;53.172;6.974;2023-04-28T10:58:36;14.80;99.90
52513;DHT22;38422;53.172;6.974;2023-04-28T11:03:58;14.40;99.90
52513;DHT22;38422;53.172;6.974;2023-04-28T11:06:34;14.20;99.90
52513;DHT22;38422;53.172;6.974;2023-04-28T11:12:04;13.70;99.90
52513;DHT22;38422;53.172;6.974;2023-04-28T11:17:00;13.50;99.90
52513;DHT22;38422;53.172;6.974;2023-04-28T11:19:38;13.50;99.90
52513;DHT22;38422;53.172;6.974;2023-04-28T11:22:12;13.50;99.90
52513;DHT22;38422;53.172;6.974;2023-04-28T11:24:38;13.50;99.90
52513;DHT22;38422;53.172;6.974;2023-04-28T11:27:04;13.40;99.90
52513;DHT22;38422;53.172;6.974;2023-04-28T11:29:37;13.30;99.90
52513;DHT22;38422;53.172;6.974;2023-04-28T11:32:08;13.20;99.90
52513;DHT22;38422;53.172;6.974;2023-04-28T11:34:34;13.10;99.90
52513;DHT22;38422;53.172;6.974;2023-04-28T11:37:00;13.00;99.90
52513;DHT22;38422;53.172;6.974;2023-04-28T11:39:31;13.00;99.90
52513;DHT22;38422;53.172;6.974;2023-04-28T11:41:59;12.90;99.90
52513;DHT22;38422;53.172;6.974;2023-04-28T11:44:27;12.80;99.90
52513;DHT22;38422;53.172;6.974;2023-04-28T11:46:57;12.80;99.90
52513;DHT22;38422;53.172;6.974;2023-04-28T11:49:31;12.70;99.90
52513;DHT22;38422;53.172;6.974;2023-04-28T11:52:07;12.70;99.90
52513;DHT22;38422;53.172;6.974;2023-04-28T11:54:34;12.70;99.90
52513;DHT22;38422;53.172;6.974;2023-04-28T11:57:01;12.70;99.90
52513;DHT22;38422;53.172;6.974;2023-04-28T11:59:33;12.70;99.90
52513;DHT22;38422;53.172;6.974;2023-04-28T12:02:02;12.80;99.90
52513;DHT22;38422;53.172;6.974;2023-04-28T12:04:32;12.90;99.90
52513;DHT22;38422;53.172;6.974;2023-04-28T12:07:11;12.90;99.90
52513;DHT22;38422;53.172;6.974;2023-04-28T12:09:42;12.90;99.90
52513;DHT22;38422;53.172;6.974;2023-04-28T12:12:14;13.00;99.90
52513;DHT22;38422;53.172;6.974;2023-04-28T12:17:30;13.10;99.90
52513;DHT22;38422;53.172;6.974;2023-04-28T12:19:58;13.10;99.90
52513;DHT22;38422;53.172;6.974;2023-04-28T12:22:25;13.20;99.90
52513;DHT22;38422;53.172;6.974;2023-04-28T12:25:08;13.20;99.90
52513;DHT22;38422;53.172;6.974;2023-04-28T12:27:35;13.10;99.90
52513;DHT22;38422;53.172;6.974;2023-04-28T12:32:45;13.00;99.90
52513;DHT22;38422;53.172;6.974;2023-04-28T12:35:11;13.00;99.90
52513;DHT22;38422;53.172;6.974;2023-04-28T12:37:37;13.00;99.90
52513;DHT22;38422;53.172;6.974;2023-04-28T12:40:05;13.20;99.90
52513;DHT22;38422;53.172;6.974;2023-04-28T12:42:31;13.30;99.90
52513;DHT22;38422;53.172;6.974;2023-04-28T12:44:57;13.40;99.90
52513;DHT22;38422;53.172;6.974;2023-04-28T12:47:23;13.40;99.90
52513;DHT22;38422;53.172;6.974;2023-04-28T12:49:49;13.30;99.90
52513;DHT22;38422;53.172;6.974;2023-04-28T12:52:18;13.30;99.90
52513;DHT22;38422;53.172;6.974;2023-04-28T12:54:43;13.20;99.90
52513;DHT22;38422;53.172;6.974;2023-04-28T12:57:12;13.20;99.90
52513;DHT22;38422;53.172;6.974;2023-04-28T12:59:38;13.10;99.90
52513;DHT22;38422;53.172;6.974;2023-04-28T13:02:04;13.20;99.90
52513;DHT22;38422;53.172;6.974;2023-04-28T13:04:30;13.20;99.90
52513;DHT22;38422;53.172;6.974;2023-04-28T13:06:59;13.20;99.90
52513;DHT22;38422;53.172;6.974;2023-04-28T13:09:25;13.30;99.90
52513;DHT22;38422;53.172;6.974;2023-04-28T13:11:54;13.30;99.90
52513;DHT22;38422;53.172;6.974;2023-04-28T13:14:20;13.30;99.90
52513;DHT22;38422;53.172;6.974;2023-04-28T13:16:46;13.30;99.90
52513;DHT22;38422;53.172;6.974;2023-04-28T13:19:12;13.30;99.90
52513;DHT22;38422;53.172;6.974;2023-04-28T13:21:41;13.30;99.90
52513;DHT22;38422;53.172;6.974;2023-04-28T13:24:07;13.20;99.90
52513;DHT22;38422;53.172;6.974;2023-04-28T13:26:33;13.20;99.90
52513;DHT22;38422;53.172;6.974;2023-04-28T13:28:59;13.20;99.90
52513;DHT22;38422;53.172;6.974;2023-04-28T13:31:27;13.10;99.90
52513;DHT22;38422;53.172;6.974;2023-04-28T13:33:54;13.10;99.90
52513;DHT22;38422;53.172;6.974;2023-04-28T13:36:20;13.10;99.90
52513;DHT22;38422;53.172;6.974;2023-04-28T13:38:46;13.00;99.90
52513;DHT22;38422;53.172;6.974;2023-04-28T13:41:14;13.00;99.90
52513;DHT22;38422;53.172;6.974;2023-04-28T13:43:40;13.10;99.90
52513;DHT22;38422;53.172;6.974;2023-04-28T13:46:06;13.10;99.90
52513;DHT22;38422;53.172;6.974;2023-04-28T13:48:37;13.10;99.90
52513;DHT22;38422;53.172;6.974;2023-04-28T13:51:03;13.20;99.90
52513;DHT22;38422;53.172;6.974;2023-04-28T13:53:32;13.30;99.90
52513;DHT22;38422;53.172;6.974;2023-04-28T13:55:59;13.40;99.90
52513;DHT22;38422;53.172;6.974;2023-04-28T13:58:27;13.40;99.90
52513;DHT22;38422;53.172;6.974;2023-04-28T14:00:53;13.30;99.90
52513;DHT22;38422;53.172;6.974;2023-04-28T14:03:20;13.30;99.90
52513;DHT22;38422;53.172;6.974;2023-04-28T14:05:56;13.30;99.90
52513;DHT22;38422;53.172;6.974;2023-04-28T14:08:23;13.30;99.90
52513;DHT22;38422;53.172;6.974;2023-04-28T14:10:50;13.20;99.90
52513;DHT22;38422;53.172;6.974;2023-04-28T14:13:17;13.20;99.90
52513;DHT22;38422;53.172;6.974;2023-04-28T14:15:43;13.20;99.90
52513;DHT22;38422;53.172;6.974;2023-04-28T14:18:10;13.20;99.90
52513;DHT22;38422;53.172;6.974;2023-04-28T14:20:36;13.20;99.90
52513;DHT22;38422;53.172;6.974;2023-04-28T14:23:02;13.20;99.90
52513;DHT22;38422;53.172;6.974;2023-04-28T14:25:28;13.20;99.90
52513;DHT22;38422;53.172;6.974;2023-04-28T14:27:54;13.20;99.90
52513;DHT22;38422;53.172;6.974;2023-04-28T14:30:20;13.20;99.90
52513;DHT22;38422;53.172;6.974;2023-04-28T14:32:47;13.10;99.90
52513;DHT22;38422;53.172;6.974;2023-04-28T14:35:13;13.10;99.90
52513;DHT22;38422;53.172;6.974;2023-04-28T14:37:40;13.10;99.90
52513;DHT22;38422;53.172;6.974;2023-04-28T14:40:06;13.10;99.90
52513;DHT22;38422;53.172;6.974;2023-04-28T14:42:33;13.10;99.90
52513;DHT22;38422;53.172;6.974;2023-04-28T14:45:02;13.10;99.90
52513;DHT22;38422;53.172;6.974;2023-04-28T14:47:29;13.10;99.90
52513;DHT22;38422;53.172;6.974;2023-04-28T14:49:54;13.10;99.90
52513;DHT22;38422;53.172;6.974;2023-04-28T14:52:21;13.10;99.90
52513;DHT22;38422;53.172;6.974;2023-04-28T14:54:51;13.10;99.90
52513;DHT22;38422;53.172;6.974;2023-04-28T14:57:17;13.10;99.90
52513;DHT22;38422;53.172;6.974;2023-04-28T14:59:43;13.10;99.90
52513;DHT22;38422;53.172;6.974;2023-04-28T15:02:09;13.00;99.90
52513;DHT22;38422;53.172;6.974;2023-04-28T15:04:34;13.10;99.90
52513;DHT22;38422;53.172;6.974;2023-04-28T15:07:00;13.00;99.90
52513;DHT22;38422;53.172;6.974;2023-04-28T15:09:26;13.10;99.90
52513;DHT22;38422;53.172;6.974;2023-04-28T15:11:53;13.10;99.90
52513;DHT22;38422;53.172;6.974;2023-04-28T15:14:19;13.10;99.90
52513;DHT22;38422;53.172;6.974;2023-04-28T15:16:45;13.10;99.90
52513;DHT22;38422;53.172;6.974;2023-04-28T15:19:13;13.10;99.90
52513;DHT22;38422;53.172;6.974;2023-04-28T15:21:39;13.10;99.90
52513;DHT22;38422;53.172;6.974;2023-04-28T15:24:05;13.10;99.90
52513;DHT22;38422;53.172;6.974;2023-04-28T15:26:31;13.00;99.90
52513;DHT22;38422;53.172;6.974;2023-04-28T15:28:57;13.00;99.90
52513;DHT22;38422;53.172;6.974;2023-04-28T15:31:23;13.00;99.90
52513;DHT22;38422;53.172;6.974;2023-04-28T15:33:51;13.00;99.90
52513;DHT22;38422;53.172;6.974;2023-04-28T15:36:17;12.90;99.90
52513;DHT22;38422;53.172;6.974;2023-04-28T15:38:44;12.80;99.90
52513;DHT22;38422;53.172;6.974;2023-04-28T15:41:14;12.70;99.90
52513;DHT22;38422;53.172;6.974;2023-04-28T15:43:40;12.70;99.90
52513;DHT22;38422;53.172;6.974;2023-04-28T15:46:06;12.70;99.90
52513;DHT22;38422;53.172;6.974;2023-04-28T15:48:37;12.70;99.90
52513;DHT22;38422;53.172;6.974;2023-04-28T15:51:04;12.60;99.90
52513;DHT22;38422;53.172;6.974;2023-04-28T15:53:30;12.60;99.90
52513;DHT22;38422;53.172;6.974;2023-04-28T15:55:56;12.60;99.90
52513;DHT22;38422;53.172;6.974;2023-04-28T15:58:22;12.60;99.90
52513;DHT22;38422;53.172;6.974;2023-04-28T16:00:48;12.60;99.90
52513;DHT22;38422;53.172;6.974;2023-04-28T16:03:14;12.60;99.90
52513;DHT22;38422;53.172;6.974;2023-04-28T16:05:40;12.60;99.90
52513;DHT22;38422;53.172;6.974;2023-04-28T16:08:06;12.60;99.90
52513;DHT22;38422;53.172;6.974;2023-04-28T16:10:31;12.50;99.90